Terminal Aerodrome Forecast
Issued by NWS

Home | Current Version | Previous Version | Text Only | Print | Product List | Glossary On
Versions: 1 2 3 4 5 6 7 8 9 10 11 12 13 14 15 16 17 18 19 20
000
FTUS43 KDDC 230545
TAFGCK
TAF
KGCK 230545Z 2306/2406 20010KT 4SM BR OVC010
     FM230900 VRB05KT 1SM BR OVC006
      TEMPO 2310/2313 1/2SM FG
     FM231900 16006KT P6SM SCT035=

USA.gov is the U.S. government's official web portal to all federal, state and local government web resources and services.